createdAt,value
2023-01-27T00:05:07.610Z,102583.00
2023-01-27T00:15:29.791Z,102593.00
2023-01-27T00:25:58.267Z,102580.00
2023-01-27T00:36:19.854Z,102581.00
2023-01-27T00:46:43.361Z,102585.00
2023-01-27T00:57:05.269Z,102599.00
2023-01-27T01:07:28.475Z,102598.00
2023-01-27T01:17:50.363Z,102603.00
2023-01-27T01:28:13.504Z,102598.00
2023-01-27T01:38:34.998Z,102621.00
2023-01-27T01:49:02.535Z,102605.00
2023-01-27T01:59:28.118Z,102611.00
2023-01-27T02:09:51.121Z,102620.00
2023-01-27T02:20:21.013Z,102614.00
2023-01-27T02:30:43.850Z,102614.00
2023-01-27T02:41:10.688Z,102614.00
2023-01-27T02:51:34.616Z,102619.00
2023-01-27T03:01:56.866Z,102630.00
2023-01-27T03:12:23.065Z,102634.00
2023-01-27T03:22:46.089Z,102635.00
2023-01-27T03:33:10.436Z,102631.00
2023-01-27T03:44:04.597Z,102630.00
2023-01-27T03:54:27.761Z,102638.00
2023-01-27T04:05:06.428Z,102635.00
2023-01-27T04:15:29.603Z,102630.00
2023-01-27T04:25:54.293Z,102619.00
2023-01-27T04:36:17.452Z,102640.00
2023-01-27T04:46:39.934Z,102638.00
2023-01-27T04:57:03.887Z,102651.00
2023-01-27T05:07:26.105Z,102644.00
2023-01-27T05:17:49.112Z,102658.00
2023-01-27T05:28:10.956Z,102671.00
2023-01-27T05:38:34.532Z,102673.00
2023-01-27T05:48:58.293Z,102688.00
2023-01-27T05:59:21.102Z,102687.00
2023-01-27T06:09:43.069Z,102685.00
2023-01-27T06:20:07.104Z,102694.00
2023-01-27T06:30:28.889Z,102688.00
2023-01-27T06:40:51.890Z,102695.00
2023-01-27T06:51:13.341Z,102700.00
2023-01-27T07:01:36.760Z,102708.00
2023-01-27T07:11:58.663Z,102710.00
2023-01-27T07:22:21.576Z,102714.00
2023-01-27T07:32:43.030Z,102718.00
2023-01-27T07:43:05.830Z,102720.00
2023-01-27T07:53:29.182Z,102738.00
2023-01-27T08:03:52.222Z,102739.00
2023-01-27T08:14:13.951Z,102729.00
2023-01-27T08:24:37.013Z,102738.00
2023-01-27T08:34:58.636Z,102741.00
2023-01-27T08:45:21.515Z,102753.00
2023-01-27T08:55:43.494Z,102763.00
2023-01-27T09:06:09.119Z,102754.00
2023-01-27T09:16:30.730Z,102744.00
2023-01-27T09:26:53.668Z,102764.00
2023-01-27T09:37:15.463Z,102777.00
2023-01-27T09:48:04.230Z,102800.00
2023-01-27T09:58:38.737Z,102781.00
2023-01-27T10:09:23.577Z,102776.00
2023-01-27T10:19:59.672Z,102792.00
2023-01-27T10:30:30.298Z,102780.00
2023-01-27T10:41:00.840Z,102785.00
2023-01-27T10:51:27.349Z,102777.00
2023-01-27T11:01:54.259Z,102774.00
2023-01-27T11:12:17.232Z,102785.00
2023-01-27T11:22:48.093Z,102774.00
2023-01-27T11:33:20.080Z,102765.00
2023-01-27T11:43:41.920Z,102771.00
2023-01-27T11:54:11.202Z,102772.00
2023-01-27T12:04:51.700Z,102757.00
2023-01-27T12:15:18.403Z,102764.00
2023-01-27T12:25:44.676Z,102769.00
2023-01-27T12:36:15.006Z,102766.00
2023-01-27T12:46:37.140Z,102754.00
2023-01-27T12:57:03.996Z,102758.00
2023-01-27T13:07:29.708Z,102765.00
2023-01-27T13:17:53.664Z,102782.00
2023-01-27T13:28:19.770Z,102764.00
2023-01-27T13:38:51.029Z,102776.00
2023-01-27T13:49:29.773Z,102781.00
2023-01-27T14:00:08.236Z,102801.00
2023-01-27T14:10:39.137Z,102814.00
2023-01-27T14:21:27.925Z,102818.00
2023-01-27T14:32:07.356Z,102820.00
2023-01-27T14:42:38.280Z,102814.00
2023-01-27T14:53:12.348Z,102830.00
2023-01-27T15:04:02.043Z,102833.00
2023-01-27T15:14:57.810Z,102832.00
2023-01-27T15:25:30.971Z,102856.00
2023-01-27T15:36:20.555Z,102850.00
2023-01-27T15:46:46.824Z,102874.00
2023-01-27T15:57:24.965Z,102891.00
2023-01-27T16:07:53.420Z,102903.00
2023-01-27T16:18:27.063Z,102911.00
2023-01-27T16:28:54.153Z,102904.00
2023-01-27T16:39:28.338Z,102924.00
2023-01-27T16:49:53.639Z,102923.00
2023-01-27T17:00:23.062Z,102938.00
2023-01-27T17:10:50.787Z,102940.00
2023-01-27T17:21:12.626Z,102937.00
2023-01-27T17:31:39.086Z,102959.00
2023-01-27T17:42:01.623Z,102954.00
2023-01-27T17:52:27.547Z,102972.00
2023-01-27T18:02:55.175Z,102970.00
2023-01-27T18:13:37.771Z,102991.00
2023-01-27T18:24:00.748Z,103000.00
2023-01-27T18:34:27.767Z,103004.00
2023-01-27T18:44:50.366Z,103022.00
2023-01-27T18:55:17.307Z,103026.00
2023-01-27T19:05:40.197Z,103030.00
2023-01-27T19:16:03.266Z,103034.00
2023-01-27T19:26:25.310Z,103045.00
2023-01-27T19:36:48.415Z,103049.00
2023-01-27T19:47:12.404Z,103058.00
2023-01-27T19:57:35.673Z,103060.00
2023-01-27T20:07:58.305Z,103066.00
2023-01-27T20:18:23.613Z,103065.00
2023-01-27T20:28:46.062Z,103085.00
2023-01-27T20:39:09.035Z,103084.00
2023-01-27T20:49:30.939Z,103088.00
2023-01-27T20:59:54.244Z,103105.00
2023-01-27T21:10:16.036Z,103103.00
2023-01-27T21:20:38.761Z,103100.00
2023-01-27T21:31:06.840Z,103101.00
2023-01-27T21:41:52.660Z,103103.00
2023-01-27T21:52:14.652Z,103112.00
2023-01-27T22:02:37.781Z,103121.00
2023-01-27T22:13:00.555Z,103136.00
2023-01-27T22:23:24.724Z,103121.00
2023-01-27T22:33:46.334Z,103129.00
2023-01-27T22:44:09.315Z,103123.00
2023-01-27T22:54:30.933Z,103129.00
2023-01-27T23:04:54.113Z,103125.00
2023-01-27T23:15:16.277Z,103128.00
2023-01-27T23:25:44.439Z,103111.00
2023-01-27T23:36:08.286Z,103110.00
2023-01-27T23:46:31.853Z,103117.00
2023-01-27T23:56:53.509Z,103118.00
